Time;durP1;ratioP1;P1;durP2;ratioP2;P2;SDS_P1;SDS_P2;PMS_P1;PMS_P2;Temp;Humidity;BMP_temperature;BMP_pressure;BME280_temperature;BME280_humidity;BME280_pressure;Samples;Min_cycle;Max_cycle;Signal;HPM_P1;HPM_P2
2022/07/19 00:01:41;;;;;;;0.27;0.27;;;22.00;99.90;;;;;;5064032;28;20677;-78
2022/07/19 00:04:06;;;;;;;0.47;0.47;;;22.00;99.90;;;;;;5066073;28;20263;-78
2022/07/19 00:06:32;;;;;;;0.33;0.30;;;22.00;99.90;;;;;;5058094;28;20307;-79
2022/07/19 00:08:58;;;;;;;0.30;0.30;;;21.90;99.90;;;;;;5063884;28;20209;-79
2022/07/19 00:11:23;;;;;;;0.17;0.17;;;21.90;99.90;;;;;;5062233;28;20668;-79
2022/07/19 00:13:49;;;;;;;0.20;0.20;;;21.90;99.90;;;;;;5061866;28;20213;-79
2022/07/19 00:16:14;;;;;;;0.30;0.30;;;21.90;99.90;;;;;;5070198;28;20188;-79
2022/07/19 00:18:40;;;;;;;1.07;0.47;;;21.90;99.90;;;;;;5068834;28;20742;-79
2022/07/19 00:21:06;;;;;;;0.57;0.57;;;21.80;99.90;;;;;;5064006;28;20253;-78
2022/07/19 00:23:32;;;;;;;0.53;0.50;;;21.70;99.90;;;;;;5060330;28;20193;-79
2022/07/19 00:25:58;;;;;;;0.47;0.47;;;21.60;99.90;;;;;;5062021;28;20200;-79
2022/07/19 00:28:23;;;;;;;0.10;0.10;;;21.50;99.90;;;;;;5064294;28;20208;-79
2022/07/19 00:30:49;;;;;;;0.40;0.40;;;21.50;99.90;;;;;;5068684;28;20285;-79
2022/07/19 00:33:14;;;;;;;0.57;0.57;;;21.60;99.90;;;;;;5077394;28;20641;-79
2022/07/19 00:35:40;;;;;;;0.37;0.37;;;21.70;99.90;;;;;;5055590;28;20227;-79
2022/07/19 00:38:10;;;;;;;0.83;0.83;;;21.70;99.90;;;;;;5069458;28;20921;-79
2022/07/19 00:40:37;;;;;;;0.83;0.83;;;21.80;99.90;;;;;;5064926;28;20196;-79
2022/07/19 00:43:03;;;;;;;0.27;0.27;;;21.70;99.90;;;;;;5072689;28;20189;-79
2022/07/19 00:45:29;;;;;;;0.70;0.70;;;21.70;99.90;;;;;;5058304;28;20181;-79
2022/07/19 00:47:55;;;;;;;0.40;0.40;;;21.80;99.90;;;;;;5063289;28;20220;-79
2022/07/19 00:50:21;;;;;;;1.90;1.23;;;21.80;99.90;;;;;;5064973;28;20237;-79
2022/07/19 00:52:54;;;;;;;0.50;0.50;;;21.80;99.90;;;;;;5062642;28;20214;-79
2022/07/19 00:55:20;;;;;;;0.30;0.30;;;21.80;99.90;;;;;;5070124;28;20176;-79
2022/07/19 00:57:46;;;;;;;0.47;0.47;;;21.70;99.90;;;;;;5061644;28;20177;-79
2022/07/19 01:00:14;;;;;;;0.30;0.30;;;21.70;99.90;;;;;;5058919;28;20182;-79
2022/07/19 01:02:40;;;;;;;0.37;0.30;;;21.60;99.90;;;;;;5070099;28;20181;-79
2022/07/19 01:05:07;;;;;;;0.70;0.70;;;21.60;99.90;;;;;;5064561;28;20272;-79
2022/07/19 01:07:34;;;;;;;0.30;0.30;;;21.60;99.90;;;;;;5070709;28;20185;-79
2022/07/19 01:10:01;;;;;;;0.30;0.30;;;21.60;99.90;;;;;;5066429;28;20189;-79
2022/07/19 01:12:28;;;;;;;0.70;0.70;;;21.60;99.90;;;;;;5070737;28;20254;-79
2022/07/19 01:14:57;;;;;;;0.30;0.30;;;21.60;99.90;;;;;;5070716;28;20184;-79
2022/07/19 01:17:23;;;;;;;1.53;0.60;;;21.60;99.90;;;;;;5069259;28;20268;-79
2022/07/19 01:19:49;;;;;;;0.40;0.40;;;21.40;99.90;;;;;;5059372;28;20295;-79
2022/07/19 01:22:14;;;;;;;0.33;0.33;;;21.30;99.90;;;;;;5063813;28;20193;-79
2022/07/19 01:24:40;;;;;;;0.30;0.30;;;21.10;99.90;;;;;;5069051;28;20185;-79
2022/07/19 01:27:05;;;;;;;0.73;0.40;;;21.20;99.90;;;;;;5066757;28;20262;-79
2022/07/19 01:29:32;;;;;;;0.30;0.30;;;21.20;99.90;;;;;;5068945;28;20201;-79
2022/07/19 01:31:57;;;;;;;0.50;0.50;;;21.20;99.90;;;;;;5069748;28;20203;-79
2022/07/19 01:34:23;;;;;;;2.53;0.70;;;21.10;99.90;;;;;;5072416;28;20173;-79
2022/07/19 01:36:48;;;;;;;0.53;0.53;;;20.80;99.90;;;;;;5074102;28;20181;-79
2022/07/19 01:39:14;;;;;;;0.30;0.30;;;20.60;99.90;;;;;;5069154;28;20196;-79
2022/07/19 01:41:40;;;;;;;0.40;0.40;;;20.60;99.90;;;;;;5065428;28;20176;-79
2022/07/19 01:44:06;;;;;;;0.30;0.27;;;20.70;99.90;;;;;;5070304;28;20176;-79
2022/07/19 01:46:31;;;;;;;0.30;0.30;;;20.80;99.90;;;;;;5077986;28;20183;-79
2022/07/19 01:48:57;;;;;;;0.20;0.20;;;20.80;99.90;;;;;;5071280;28;20205;-79
2022/07/19 01:51:22;;;;;;;0.33;0.33;;;20.80;99.90;;;;;;5064259;28;20245;-79
2022/07/19 01:53:48;;;;;;;0.70;0.70;;;20.80;99.90;;;;;;5070716;28;20196;-79
2022/07/19 01:56:13;;;;;;;0.53;0.37;;;20.80;99.90;;;;;;5069843;28;20505;-79
2022/07/19 01:58:39;;;;;;;0.37;0.37;;;20.90;99.90;;;;;;5066624;28;20607;-79
2022/07/19 02:01:04;;;;;;;0.60;0.40;;;20.80;99.90;;;;;;5064756;28;20255;-79
2022/07/19 02:03:30;;;;;;;0.20;0.20;;;20.80;99.90;;;;;;5066056;28;20272;-79
2022/07/19 02:05:56;;;;;;;0.40;0.40;;;20.90;99.90;;;;;;5057349;28;20181;-79
2022/07/19 02:08:21;;;;;;;0.30;0.30;;;20.90;99.90;;;;;;5073277;28;20197;-79
2022/07/19 02:10:47;;;;;;;0.40;0.40;;;20.90;99.90;;;;;;5072372;28;20197;-79
2022/07/19 02:13:13;;;;;;;1.37;0.70;;;20.90;99.90;;;;;;5063469;28;20642;-79
2022/07/19 02:15:38;;;;;;;0.30;0.30;;;20.90;99.90;;;;;;5071969;28;20235;-79
2022/07/19 02:18:05;;;;;;;0.33;0.33;;;20.80;99.90;;;;;;5061971;28;20694;-79
2022/07/19 02:20:30;;;;;;;1.40;0.63;;;20.80;99.90;;;;;;5075875;28;20199;-79
2022/07/19 02:22:56;;;;;;;0.30;0.30;;;20.50;99.90;;;;;;5070932;28;20654;-79
2022/07/19 02:25:22;;;;;;;0.70;0.70;;;20.20;99.90;;;;;;5065576;28;20173;-79
2022/07/19 02:27:47;;;;;;;3.17;0.50;;;20.10;99.90;;;;;;5066301;28;20595;-79
2022/07/19 02:30:14;;;;;;;0.30;0.30;;;20.10;99.90;;;;;;5064964;28;20731;-79
2022/07/19 02:32:40;;;;;;;0.20;0.20;;;20.00;99.90;;;;;;5072887;28;20564;-79
2022/07/19 02:35:07;;;;;;;0.50;0.50;;;19.90;99.90;;;;;;5070323;28;20169;-79
2022/07/19 02:37:33;;;;;;;0.50;0.50;;;19.90;99.90;;;;;;5069364;28;20294;-79
2022/07/19 02:39:58;;;;;;;1.47;1.40;;;19.70;99.90;;;;;;5065585;28;20201;-79
2022/07/19 02:42:24;;;;;;;0.50;0.50;;;19.70;99.90;;;;;;5074104;28;20645;-80
2022/07/19 02:44:49;;;;;;;0.30;0.30;;;19.80;99.90;;;;;;5061710;28;20196;-79
2022/07/19 02:47:15;;;;;;;0.40;0.40;;;19.90;99.90;;;;;;5070715;28;20566;-79
2022/07/19 02:49:40;;;;;;;0.30;0.30;;;19.80;99.90;;;;;;5067713;28;20813;-79
2022/07/19 02:52:06;;;;;;;0.27;0.27;;;19.70;99.90;;;;;;5060876;28;20181;-79
2022/07/19 02:54:31;;;;;;;0.30;0.30;;;19.70;99.90;;;;;;5058956;28;20208;-79
2022/07/19 02:56:57;;;;;;;0.20;0.20;;;19.60;99.90;;;;;;5066607;28;20183;-79
2022/07/19 02:59:22;;;;;;;0.40;0.40;;;19.70;99.90;;;;;;5064399;28;20213;-79
2022/07/19 03:01:48;;;;;;;0.30;0.30;;;19.70;99.90;;;;;;5069229;28;20189;-78
2022/07/19 03:04:13;;;;;;;0.30;0.30;;;19.70;99.90;;;;;;5065122;28;20189;-78
2022/07/19 03:06:39;;;;;;;0.33;0.30;;;19.60;99.90;;;;;;5069688;28;20288;-78
2022/07/19 03:09:04;;;;;;;0.10;0.10;;;19.70;99.90;;;;;;5064732;28;20680;-78
2022/07/19 03:11:30;;;;;;;0.30;0.30;;;19.70;99.90;;;;;;5066641;28;20728;-79
2022/07/19 03:13:56;;;;;;;0.40;0.40;;;19.50;99.90;;;;;;5057787;28;20600;-79
2022/07/19 03:16:21;;;;;;;0.50;0.50;;;19.40;99.90;;;;;;5070429;28;20176;-79
2022/07/19 03:18:47;;;;;;;0.30;0.30;;;19.20;99.90;;;;;;5067810;28;20564;-79
2022/07/19 03:21:12;;;;;;;1.20;0.50;;;19.00;99.90;;;;;;5063142;28;20275;-79
2022/07/19 03:23:38;;;;;;;0.30;0.30;;;18.90;99.90;;;;;;5070465;28;20233;-79
2022/07/19 03:26:05;;;;;;;0.50;0.50;;;18.80;99.90;;;;;;5065346;28;20180;-79
2022/07/19 03:28:31;;;;;;;0.23;0.23;;;18.70;99.90;;;;;;5066506;28;20201;-79
2022/07/19 03:30:57;;;;;;;0.20;0.20;;;18.70;99.90;;;;;;5068929;28;20297;-79
2022/07/19 03:33:22;;;;;;;0.87;0.43;;;18.60;99.90;;;;;;5073714;28;20880;-79
2022/07/19 03:35:48;;;;;;;0.60;0.40;;;18.60;99.90;;;;;;5071028;28;20228;-79
2022/07/19 03:38:15;;;;;;;0.20;0.20;;;18.60;99.90;;;;;;5072355;28;20193;-79
2022/07/19 03:40:41;;;;;;;0.37;0.37;;;18.70;99.90;;;;;;5065039;28;20647;-79
2022/07/19 03:43:06;;;;;;;0.43;0.43;;;18.80;99.90;;;;;;5070290;28;20234;-79
2022/07/19 03:45:32;;;;;;;0.57;0.57;;;18.90;99.90;;;;;;5062245;28;20182;-79
2022/07/19 03:47:58;;;;;;;0.20;0.20;;;19.10;99.90;;;;;;5068584;28;20219;-79
2022/07/19 03:50:23;;;;;;;0.20;0.20;;;19.30;99.90;;;;;;5076350;28;20181;-79
2022/07/19 03:52:49;;;;;;;0.80;0.80;;;19.40;99.90;;;;;;5064927;28;20739;-79
2022/07/19 03:55:14;;;;;;;0.30;0.30;;;19.70;99.90;;;;;;5064023;28;20557;-79
2022/07/19 03:57:40;;;;;;;0.30;0.30;;;20.40;99.90;;;;;;5069768;28;20189;-79
2022/07/19 04:00:06;;;;;;;0.30;0.30;;;21.20;99.90;;;;;;5066641;28;20173;-79
2022/07/19 04:02:32;;;;;;;0.73;0.53;;;21.90;99.90;;;;;;5069809;28;20229;-80
2022/07/19 04:04:57;;;;;;;0.90;0.43;;;22.60;99.90;;;;;;5061901;28;20768;-80
2022/07/19 04:07:23;;;;;;;0.20;0.20;;;23.30;99.90;;;;;;5076356;28;20180;-80
2022/07/19 04:09:48;;;;;;;0.40;0.40;;;23.80;99.90;;;;;;5066160;28;20209;-79
2022/07/19 04:12:14;;;;;;;1.07;0.33;;;24.20;99.90;;;;;;5069579;28;20208;-79
2022/07/19 04:14:40;;;;;;;0.60;0.50;;;24.60;99.90;;;;;;5064882;28;20192;-79
2022/07/19 04:17:05;;;;;;;0.50;0.50;;;25.10;99.90;;;;;;5064696;28;20178;-79
2022/07/19 04:19:31;;;;;;;1.37;0.80;;;25.50;99.90;;;;;;5069079;28;20287;-79
2022/07/19 04:21:57;;;;;;;0.50;0.50;;;25.80;99.90;;;;;;5066213;28;20208;-79
2022/07/19 04:24:23;;;;;;;0.60;0.60;;;25.60;99.90;;;;;;5067546;28;20224;-79
2022/07/19 04:26:48;;;;;;;0.50;0.50;;;24.90;99.90;;;;;;5066311;28;20182;-79
2022/07/19 04:29:14;;;;;;;0.40;0.40;;;24.40;99.90;;;;;;5062027;28;20200;-79
2022/07/19 04:31:39;;;;;;;0.97;0.43;;;23.90;99.90;;;;;;5067242;28;20197;-79
2022/07/19 04:34:05;;;;;;;0.50;0.50;;;23.70;99.90;;;;;;5063819;28;20205;-79
2022/07/19 04:36:31;;;;;;;0.70;0.60;;;23.40;99.90;;;;;;5061474;28;20165;-79
2022/07/19 04:38:57;;;;;;;0.37;0.37;;;23.10;99.90;;;;;;5066028;28;20212;-79
2022/07/19 04:41:22;;;;;;;0.40;0.40;;;23.00;99.90;;;;;;5068310;28;20275;-79
2022/07/19 04:43:48;;;;;;;0.67;0.60;;;22.80;99.90;;;;;;5059608;28;20176;-79
2022/07/19 04:46:13;;;;;;;1.33;0.40;;;22.30;99.90;;;;;;5066910;28;20181;-79
2022/07/19 04:48:40;;;;;;;0.33;0.33;;;22.00;99.90;;;;;;5060817;28;20706;-79
2022/07/19 04:51:06;;;;;;;0.60;0.60;;;21.50;99.90;;;;;;5066188;28;20207;-79
2022/07/19 04:53:32;;;;;;;0.83;0.83;;;21.30;99.90;;;;;;5068864;28;20198;-79
2022/07/19 04:55:57;;;;;;;0.50;0.50;;;21.10;99.90;;;;;;5068217;28;20184;-79
2022/07/19 04:58:23;;;;;;;0.80;0.80;;;20.90;99.90;;;;;;5061216;28;20204;-79
2022/07/19 05:00:48;;;;;;;0.60;0.60;;;20.80;99.90;;;;;;5068616;28;20538;-79
2022/07/19 05:03:14;;;;;;;0.27;0.27;;;20.70;99.90;;;;;;5063050;28;20200;-79
2022/07/19 05:05:39;;;;;;;0.30;0.30;;;20.70;99.90;;;;;;5066958;28;20647;-79
2022/07/19 05:08:05;;;;;;;0.60;0.60;;;20.80;99.90;;;;;;5061562;28;20213;-79
2022/07/19 05:10:30;;;;;;;1.30;0.40;;;21.10;99.90;;;;;;5064251;28;20189;-78
2022/07/19 05:12:56;;;;;;;1.57;1.47;;;21.20;99.90;;;;;;5065191;28;20196;-80
2022/07/19 05:15:21;;;;;;;0.67;0.50;;;21.40;99.90;;;;;;5063235;28;20539;-79
2022/07/19 05:17:47;;;;;;;0.70;0.33;;;21.50;99.90;;;;;;5068057;28;20187;-80
2022/07/19 05:20:15;;;;;;;0.33;0.33;;;21.70;99.90;;;;;;5066139;28;20220;-85
2022/07/19 05:22:41;;;;;;;0.53;0.53;;;21.90;99.90;;;;;;5071745;28;20191;-80
2022/07/19 05:25:07;;;;;;;12.73;0.60;;;22.00;99.90;;;;;;5080221;28;20248;-80
2022/07/19 05:27:32;;;;;;;0.93;0.90;;;22.10;99.90;;;;;;5076886;28;20256;-80
2022/07/19 05:29:58;;;;;;;0.47;0.47;;;22.20;99.90;;;;;;5071720;28;20234;-80
2022/07/19 05:32:23;;;;;;;0.87;0.53;;;22.10;99.90;;;;;;5071294;28;20209;-80
2022/07/19 05:34:49;;;;;;;0.50;0.50;;;22.10;99.90;;;;;;5074913;28;20173;-80
2022/07/19 05:37:14;;;;;;;0.97;0.67;;;22.00;99.90;;;;;;5068397;28;20189;-80
2022/07/19 05:39:40;;;;;;;0.90;0.70;;;22.10;99.90;;;;;;5079691;28;20279;-80
2022/07/19 05:42:05;;;;;;;0.67;0.60;;;22.10;99.90;;;;;;5070455;28;20196;-80
2022/07/19 05:44:31;;;;;;;0.40;0.40;;;22.10;99.90;;;;;;5069413;28;20189;-80
2022/07/19 05:46:56;;;;;;;1.17;1.17;;;22.10;99.90;;;;;;5075381;28;20228;-80
2022/07/19 05:49:22;;;;;;;1.17;0.53;;;22.20;99.90;;;;;;5073994;28;20205;-80
2022/07/19 05:51:47;;;;;;;0.53;0.53;;;22.30;99.90;;;;;;5074306;28;20184;-80
2022/07/19 05:54:13;;;;;;;0.40;0.40;;;22.40;99.90;;;;;;5079963;28;20193;-80
2022/07/19 05:56:38;;;;;;;0.40;0.40;;;22.40;99.90;;;;;;5079505;28;20173;-81
2022/07/19 05:59:04;;;;;;;0.60;0.60;;;22.50;99.90;;;;;;5070078;28;20572;-80
2022/07/19 06:01:30;;;;;;;0.90;0.43;;;22.70;99.90;;;;;;5071131;28;20169;-80
2022/07/19 06:03:58;;;;;;;1.10;1.07;;;22.70;99.90;;;;;;5071143;28;20184;-80
2022/07/19 06:06:28;;;;;;;0.93;0.93;;;22.80;99.90;;;;;;5070625;28;20193;-79
2022/07/19 06:08:54;;;;;;;0.50;0.50;;;22.80;99.90;;;;;;5070885;28;20264;-80
2022/07/19 06:11:20;;;;;;;0.77;0.77;;;22.90;99.90;;;;;;5066778;28;20185;-80
2022/07/19 06:13:46;;;;;;;2.03;1.93;;;23.00;99.90;;;;;;5074395;28;20308;-80
2022/07/19 06:16:12;;;;;;;0.77;0.77;;;23.20;99.90;;;;;;5072702;28;20207;-81
2022/07/19 06:18:38;;;;;;;0.70;0.70;;;23.30;99.90;;;;;;5073416;28;20234;-80
2022/07/19 06:21:07;;;;;;;0.77;0.43;;;23.40;99.90;;;;;;5075245;28;20185;-81
2022/07/19 06:23:32;;;;;;;1.27;1.27;;;23.60;99.90;;;;;;5074460;28;20562;-80
2022/07/19 06:25:59;;;;;;;4.27;0.70;;;23.70;99.90;;;;;;5081945;28;20245;-80
2022/07/19 06:28:25;;;;;;;0.57;0.57;;;23.90;99.90;;;;;;5074539;28;20208;-80
2022/07/19 06:30:51;;;;;;;0.40;0.40;;;24.10;99.90;;;;;;5077980;28;20196;-80
2022/07/19 06:33:16;;;;;;;1.33;1.23;;;24.10;99.90;;;;;;5075777;28;20210;-80
2022/07/19 06:35:42;;;;;;;0.53;0.47;;;24.30;99.90;;;;;;5066842;28;20212;-81
2022/07/19 06:38:07;;;;;;;0.27;0.27;;;24.30;99.90;;;;;;5070650;28;20287;-80
2022/07/19 06:40:33;;;;;;;0.40;0.40;;;24.40;99.90;;;;;;5072256;28;20199;-81
2022/07/19 06:42:59;;;;;;;1.73;1.37;;;24.50;99.90;;;;;;5067738;28;20191;-81
2022/07/19 06:45:24;;;;;;;2.33;0.70;;;24.60;99.90;;;;;;5072930;28;20295;-81
2022/07/19 06:47:52;;;;;;;0.73;0.73;;;24.70;99.90;;;;;;5075001;28;20210;-81
2022/07/19 06:50:19;;;;;;;6.73;1.13;;;24.90;99.90;;;;;;5075353;28;20589;-81
2022/07/19 06:52:45;;;;;;;1.57;1.13;;;24.90;99.90;;;;;;5063282;28;20217;-80
2022/07/19 06:55:10;;;;;;;0.40;0.40;;;24.90;99.90;;;;;;5065876;28;20211;-80
2022/07/19 06:57:36;;;;;;;1.30;0.83;;;25.00;99.90;;;;;;5062251;28;20196;-81
2022/07/19 07:00:04;;;;;;;4.03;1.20;;;25.00;99.90;;;;;;5068562;28;20196;-81
2022/07/19 07:02:29;;;;;;;1.13;1.03;;;25.00;99.90;;;;;;5064431;28;20554;-81
2022/07/19 07:04:55;;;;;;;2.27;0.93;;;25.00;99.90;;;;;;5068590;28;20189;-80
2022/07/19 07:07:20;;;;;;;0.50;0.50;;;25.10;99.90;;;;;;5072374;28;20181;-80
2022/07/19 07:09:46;;;;;;;1.13;1.10;;;25.30;99.90;;;;;;5069653;28;20229;-80
2022/07/19 07:12:12;;;;;;;0.70;0.70;;;25.40;99.90;;;;;;5070537;28;20193;-80
2022/07/19 07:14:37;;;;;;;0.77;0.67;;;25.50;99.90;;;;;;5067333;28;20185;-81
2022/07/19 07:17:03;;;;;;;1.03;0.97;;;25.60;99.90;;;;;;5067824;28;20681;-81
2022/07/19 07:19:28;;;;;;;0.67;0.67;;;25.80;99.90;;;;;;5062346;28;20251;-81
2022/07/19 07:21:54;;;;;;;0.67;0.67;;;26.00;99.90;;;;;;5070650;28;20217;-80
2022/07/19 07:24:19;;;;;;;0.63;0.63;;;26.10;99.90;;;;;;5069164;28;20193;-80
2022/07/19 07:26:45;;;;;;;0.40;0.40;;;26.30;99.90;;;;;;5079769;28;20341;-80
2022/07/19 07:29:10;;;;;;;0.93;0.87;;;26.50;99.90;;;;;;5075872;28;20212;-80
2022/07/19 07:31:36;;;;;;;0.80;0.80;;;26.60;99.90;;;;;;5080194;28;20207;-80
2022/07/19 07:34:02;;;;;;;1.23;1.00;;;26.80;99.90;;;;;;5071602;28;20694;-80
2022/07/19 07:36:28;;;;;;;0.83;0.83;;;26.90;99.90;;;;;;5075000;28;20517;-81
2022/07/19 07:38:54;;;;;;;1.43;0.67;;;27.30;99.90;;;;;;5074242;28;20215;-81
2022/07/19 07:41:19;;;;;;;0.53;0.53;;;27.50;99.90;;;;;;5080247;28;20180;-81
2022/07/19 07:43:45;;;;;;;0.90;0.90;;;27.70;99.90;;;;;;5073019;28;20189;-81
2022/07/19 07:46:10;;;;;;;1.65;1.38;;;28.00;99.90;;;;;;5080485;28;20643;-81
2022/07/19 07:48:36;;;;;;;0.82;0.50;;;28.20;99.90;;;;;;5079936;28;20265;-81
2022/07/19 07:51:01;;;;;;;0.43;0.43;;;28.00;99.90;;;;;;5072081;28;20172;-81
2022/07/19 07:53:28;;;;;;;0.63;0.55;;;28.20;99.90;;;;;;5086620;28;20593;-81
2022/07/19 07:55:54;;;;;;;4.28;0.95;;;28.40;99.90;;;;;;5076796;28;20272;-81
2022/07/19 07:58:19;;;;;;;0.43;0.43;;;28.70;99.90;;;;;;5079215;28;20207;-81
2022/07/19 08:00:45;;;;;;;0.52;0.38;;;28.90;99.90;;;;;;5074268;28;20189;-81
2022/07/19 08:03:10;;;;;;;0.45;0.45;;;29.10;99.90;;;;;;5077571;28;20558;-81
2022/07/19 08:05:36;;;;;;;0.90;0.90;;;29.20;99.90;;;;;;5082936;28;20176;-81
2022/07/19 08:08:01;;;;;;;1.67;1.58;;;29.10;99.90;;;;;;5070113;28;20269;-81
2022/07/19 08:10:32;;;;;;;1.05;0.95;;;29.50;99.90;;;;;;5079492;28;20230;-81
2022/07/19 08:12:58;;;;;;;0.55;0.55;;;29.70;99.90;;;;;;5072233;28;20225;-81
2022/07/19 08:15:23;;;;;;;6.78;0.82;;;29.70;99.90;;;;;;5074176;28;20177;-81
2022/07/19 08:17:49;;;;;;;0.47;0.47;;;29.80;99.90;;;;;;5081047;28;20176;-80
2022/07/19 08:20:15;;;;;;;0.68;0.52;;;30.00;99.90;;;;;;5081656;28;20219;-81
2022/07/19 08:22:41;;;;;;;0.43;0.43;;;30.10;99.90;;;;;;5081552;28;20185;-81
2022/07/19 08:25:07;;;;;;;0.47;0.47;;;30.10;98.20;;;;;;5079045;28;20661;-81
2022/07/19 08:27:33;;;;;;;1.60;1.50;;;30.10;99.70;;;;;;5069864;28;20212;-81
2022/07/19 08:30:00;;;;;;;0.60;0.60;;;30.40;99.90;;;;;;5089185;28;20192;-80
2022/07/19 08:32:25;;;;;;;1.83;1.58;;;30.70;99.90;;;;;;5085880;28;20256;-81
2022/07/19 08:34:51;;;;;;;0.50;0.50;;;30.70;99.90;;;;;;5079423;28;20627;-81
2022/07/19 08:37:16;;;;;;;0.43;0.43;;;30.90;99.00;;;;;;5069147;28;20173;-81
2022/07/19 08:39:42;;;;;;;0.20;0.20;;;31.00;98.50;;;;;;5067627;28;20296;-82
2022/07/19 08:42:09;;;;;;;0.82;0.82;;;31.20;98.40;;;;;;5061378;28;20254;-81
2022/07/19 08:44:39;;;;;;;0.45;0.45;;;31.00;98.50;;;;;;5061200;28;20650;-81
2022/07/19 08:47:06;;;;;;;0.55;0.40;;;30.70;98.50;;;;;;5065777;28;20192;-81
2022/07/19 08:49:32;;;;;;;1.25;0.85;;;30.90;97.60;;;;;;5061235;28;20193;-81
2022/07/19 08:51:58;;;;;;;0.45;0.45;;;30.60;97.10;;;;;;5064346;28;20272;-81
2022/07/19 08:54:24;;;;;;;0.25;0.25;;;30.40;97.90;;;;;;5059297;28;20734;-82
2022/07/19 08:59:34;;;;;;;0.88;0.80;;;30.70;96.60;;;;;;5060144;28;20271;-80
2022/07/19 09:01:59;;;;;;;0.45;0.45;;;30.80;97.30;;;;;;5060611;28;20212;-83
2022/07/19 09:04:27;;;;;;;1.33;1.17;;;31.00;96.90;;;;;;5063651;28;20187;-81
2022/07/19 09:06:54;;;;;;;0.50;0.50;;;31.00;97.20;;;;;;5063639;28;20192;-81
2022/07/19 09:09:31;;;;;;;1.20;0.75;;;31.00;97.00;;;;;;5061644;28;20213;-81
2022/07/19 09:11:59;;;;;;;0.57;0.57;;;31.20;97.80;;;;;;5068218;28;20706;-81
2022/07/19 09:14:26;;;;;;;1.20;1.02;;;31.30;96.70;;;;;;5069011;28;20236;-79
2022/07/19 09:17:09;;;;;;;0.32;0.32;;;31.50;96.90;;;;;;5069012;28;20178;-79
2022/07/19 09:19:38;;;;;;;0.43;0.43;;;32.00;96.70;;;;;;5062251;28;20202;-79
2022/07/19 09:22:09;;;;;;;0.47;0.47;;;32.40;96.80;;;;;;5071434;28;20182;-80
2022/07/19 09:24:44;;;;;;;0.50;0.50;;;32.60;96.30;;;;;;5071951;28;20223;-80
2022/07/19 09:27:15;;;;;;;0.95;0.80;;;32.70;96.10;;;;;;5071411;28;20191;-80
2022/07/19 09:29:43;;;;;;;0.77;0.77;;;32.60;96.40;;;;;;5069020;28;20204;-79
2022/07/19 09:32:11;;;;;;;0.70;0.70;;;32.70;96.80;;;;;;5069422;28;20201;-79
2022/07/19 09:34:40;;;;;;;1.25;0.57;;;32.40;96.30;;;;;;5069826;28;20177;-79
2022/07/19 09:37:11;;;;;;;0.68;0.68;;;32.50;95.80;;;;;;5064255;28;20208;-79
2022/07/19 09:39:41;;;;;;;0.30;0.30;;;32.80;95.90;;;;;;5066371;28;20197;-79
2022/07/19 09:42:07;;;;;;;0.55;0.55;;;33.10;96.50;;;;;;5063884;28;20249;-79
2022/07/19 09:44:33;;;;;;;0.45;0.45;;;33.30;95.80;;;;;;5067142;28;20181;-79
2022/07/19 09:46:58;;;;;;;0.40;0.40;;;33.50;95.90;;;;;;5074508;28;20184;-80
2022/07/19 09:49:24;;;;;;;0.32;0.32;;;33.60;95.60;;;;;;5067846;28;20201;-79
2022/07/19 09:51:51;;;;;;;0.40;0.40;;;33.80;95.90;;;;;;5070997;28;20173;-79
2022/07/19 09:54:19;;;;;;;0.55;0.50;;;33.60;95.40;;;;;;5058528;28;20758;-79
2022/07/19 09:56:46;;;;;;;0.43;0.43;;;33.80;95.20;;;;;;5069925;28;20185;-78
2022/07/19 09:59:13;;;;;;;0.60;0.60;;;34.00;95.40;;;;;;5072515;28;20701;-79
2022/07/19 10:01:39;;;;;;;0.55;0.45;;;34.20;95.00;;;;;;5065878;28;20264;-79
2022/07/19 10:04:11;;;;;;;0.50;0.50;;;34.20;94.60;;;;;;5061831;28;20625;-79
2022/07/19 10:06:38;;;;;;;0.77;0.77;;;34.30;94.60;;;;;;5064498;28;20192;-80
2022/07/19 10:09:05;;;;;;;0.55;0.55;;;34.40;94.60;;;;;;5068440;28;20213;-79
2022/07/19 10:11:31;;;;;;;0.50;0.50;;;34.50;94.60;;;;;;5068172;28;20189;-79
2022/07/19 10:13:57;;;;;;;0.90;0.90;;;34.60;93.90;;;;;;5064275;28;20220;-79
2022/07/19 10:16:46;;;;;;;0.60;0.60;;;34.70;94.10;;;;;;5068026;28;20185;-79
2022/07/19 10:19:36;;;;;;;0.65;0.57;;;34.90;93.60;;;;;;5059163;28;20209;-80
2022/07/19 10:22:03;;;;;;;1.05;0.65;;;34.90;94.20;;;;;;5069088;28;20188;-79
2022/07/19 10:24:44;;;;;;;0.65;0.65;;;35.00;93.90;;;;;;5065610;28;20571;-79
2022/07/19 10:27:10;;;;;;;0.60;0.60;;;34.90;93.50;;;;;;5061025;28;20546;-79
2022/07/19 10:29:36;;;;;;;0.50;0.50;;;35.00;93.70;;;;;;5066591;28;20268;-79
2022/07/19 10:32:04;;;;;;;1.17;0.85;;;35.20;93.50;;;;;;5065296;28;20261;-79
2022/07/19 10:34:30;;;;;;;0.40;0.40;;;35.20;93.60;;;;;;5063289;28;20212;-80
2022/07/19 10:36:56;;;;;;;0.50;0.50;;;35.20;93.70;;;;;;5064005;28;20715;-80
2022/07/19 10:39:30;;;;;;;0.60;0.60;;;35.30;93.20;;;;;;5062264;28;20328;-80
2022/07/19 10:42:04;;;;;;;0.70;0.70;;;34.60;92.70;;;;;;5060000;28;20263;-79
2022/07/19 10:44:30;;;;;;;0.32;0.32;;;34.90;93.50;;;;;;5067718;28;20552;-79
2022/07/19 10:46:56;;;;;;;1.02;1.02;;;35.20;92.80;;;;;;5070379;28;20220;-79
2022/07/19 10:49:40;;;;;;;0.32;0.32;;;35.30;92.40;;;;;;5074518;28;20205;-79
2022/07/19 10:52:28;;;;;;;0.40;0.40;;;35.50;92.00;;;;;;5076101;28;20185;-79
2022/07/19 10:55:19;;;;;;;0.65;0.65;;;35.60;91.70;;;;;;5070705;28;20213;-79
2022/07/19 10:57:50;;;;;;;0.50;0.50;;;35.70;91.80;;;;;;5074212;28;20178;-79
2022/07/19 11:00:20;;;;;;;2.40;0.70;;;35.70;92.30;;;;;;5063694;28;20188;-79
2022/07/19 11:02:47;;;;;;;0.60;0.60;;;35.70;91.60;;;;;;5073209;28;20202;-79
2022/07/19 11:05:23;;;;;;;0.70;0.70;;;35.80;91.70;;;;;;5069379;28;20205;-78
2022/07/19 11:07:53;;;;;;;0.30;0.30;;;35.90;91.70;;;;;;5066042;28;20185;-79
2022/07/19 11:10:30;;;;;;;0.68;0.68;;;35.90;91.90;;;;;;5071660;28;20181;-79
2022/07/19 11:12:57;;;;;;;0.60;0.60;;;36.00;91.50;;;;;;5067929;28;21062;-80
2022/07/19 11:15:27;;;;;;;0.40;0.40;;;36.00;91.50;;;;;;5065648;28;20228;-79
2022/07/19 11:17:59;;;;;;;0.52;0.52;;;36.20;91.50;;;;;;5067514;28;20169;-80
2022/07/19 11:20:29;;;;;;;0.40;0.40;;;36.20;91.60;;;;;;5068356;28;20185;-80
2022/07/19 11:22:56;;;;;;;0.60;0.60;;;35.80;91.30;;;;;;5076018;28;20185;-80
2022/07/19 11:25:29;;;;;;;0.95;0.63;;;36.10;90.30;;;;;;5067757;28;20174;-79
2022/07/19 11:27:56;;;;;;;0.63;0.63;;;36.20;90.40;;;;;;5070255;28;20638;-79
2022/07/19 11:30:23;;;;;;;0.60;0.60;;;36.30;90.50;;;;;;5066673;28;20604;-79
2022/07/19 11:32:53;;;;;;;0.40;0.40;;;36.50;91.00;;;;;;5068636;28;20292;-79
2022/07/19 11:35:19;;;;;;;0.90;0.43;;;36.00;91.20;;;;;;5069459;28;20184;-79
2022/07/19 11:37:45;;;;;;;0.50;0.50;;;36.30;91.10;;;;;;5070461;28;20326;-79
2022/07/19 11:40:12;;;;;;;2.17;1.80;;;36.40;90.60;;;;;;5069061;28;20207;-78
2022/07/19 11:42:43;;;;;;;0.82;0.70;;;36.60;90.60;;;;;;5067460;28;20174;-79
2022/07/19 11:45:12;;;;;;;0.73;0.60;;;36.60;90.90;;;;;;5070749;28;20234;-79
2022/07/19 11:47:42;;;;;;;0.40;0.40;;;36.60;90.50;;;;;;5062865;28;20209;-79
2022/07/19 11:50:09;;;;;;;0.50;0.50;;;36.60;91.00;;;;;;5065219;28;20181;-79
2022/07/19 11:53:02;;;;;;;0.52;0.52;;;36.70;90.70;;;;;;5065789;28;20216;-78
2022/07/19 11:55:35;;;;;;;0.90;0.70;;;36.70;90.70;;;;;;5073603;28;20189;-79
2022/07/19 11:58:07;;;;;;;0.60;0.60;;;36.70;90.80;;;;;;5067723;28;20200;-80
2022/07/19 12:00:33;;;;;;;0.40;0.40;;;36.80;90.80;;;;;;5064471;28;20182;-80
2022/07/19 12:03:06;;;;;;;0.60;0.60;;;37.00;91.40;;;;;;5063023;28;20189;-80
2022/07/19 12:05:37;;;;;;;0.50;0.50;;;36.80;91.60;;;;;;5063096;28;20200;-80
2022/07/19 12:08:05;;;;;;;2.83;1.30;;;36.90;91.30;;;;;;5070449;28;20759;-80
2022/07/19 12:10:40;;;;;;;0.50;0.50;;;36.40;91.10;;;;;;5064629;28;20185;-80
2022/07/19 12:13:12;;;;;;;0.47;0.47;;;36.60;90.80;;;;;;5084478;28;20204;-80
2022/07/19 12:15:53;;;;;;;1.48;0.88;;;36.60;91.00;;;;;;5072797;28;20173;-80
2022/07/19 12:18:22;;;;;;;0.63;0.60;;;35.90;90.80;;;;;;5074626;28;20200;-79
2022/07/19 12:21:42;;;;;;;0.70;0.65;;;36.20;90.80;;;;;;5069591;28;20204;-79
2022/07/19 12:24:13;;;;;;;0.77;0.77;;;35.90;91.50;;;;;;5064178;28;20260;-80
2022/07/19 12:26:41;;;;;;;0.38;0.38;;;35.60;91.10;;;;;;5069384;28;20254;-80
2022/07/19 12:29:20;;;;;;;0.60;0.60;;;36.00;91.10;;;;;;5067397;28;20209;-80
2022/07/19 12:31:47;;;;;;;0.60;0.60;;;36.50;91.30;;;;;;5070921;28;20190;-80
2022/07/19 12:34:14;;;;;;;0.60;0.60;;;36.70;91.00;;;;;;5071243;28;20555;-79
2022/07/19 12:36:40;;;;;;;0.60;0.60;;;36.90;90.70;;;;;;5069610;28;20192;-79
2022/07/19 12:39:17;;;;;;;0.60;0.60;;;37.00;90.90;;;;;;5071201;28;20223;-80
2022/07/19 12:41:53;;;;;;;0.40;0.40;;;37.10;90.90;;;;;;5067279;28;20207;-80
2022/07/19 12:44:19;;;;;;;1.27;1.08;;;37.20;90.50;;;;;;5064755;28;20184;-79
2022/07/19 12:46:45;;;;;;;0.85;0.60;;;37.20;90.50;;;;;;5069930;28;20272;-80
2022/07/19 12:49:10;;;;;;;0.52;0.52;;;37.20;90.20;;;;;;5068348;28;20213;-80
2022/07/19 12:51:42;;;;;;;0.90;0.77;;;37.20;90.40;;;;;;5063051;28;20185;-80